METAR Data
IDs: Format: Raw Decoded Include TAF

Data at: 1345 UTC 14 Dec 2019

METAR for:KDSM (Des Moines Intl, IA, US)
Text:KDSM 141254Z 32011G21KT 10SM OVC024 M06/M10 A2991 RMK AO2 SLP140 T10561100
Temperature: -5.6°C ( 22°F)
Dewpoint:-10.0°C ( 14°F) [RH = 71%]
Pressure (altimeter):29.91 inches Hg (1013.0 mb) [Sea level pressure: 1014.0 mb]
Winds:from the NW (320 degrees) at 13 MPH (11 knots; 5.7 m/s) gusting to 24 MPH (21 knots; 10.8 m/s)
Visibility:10 or more sm (16+ km)
Ceiling:2400 feet AGL
Clouds: overcast cloud deck at 2400 feet AGL